createdAt,value
2023-01-13T00:01:53.424Z,9.56
2023-01-13T00:04:22.623Z,9.58
2023-01-13T00:06:52.085Z,9.56
2023-01-13T00:09:22.679Z,9.56
2023-01-13T00:11:51.091Z,9.55
2023-01-13T00:14:22.117Z,9.58
2023-01-13T00:16:51.451Z,9.58
2023-01-13T00:19:21.686Z,9.56
2023-01-13T00:21:51.722Z,9.53
2023-01-13T00:24:21.707Z,9.56
2023-01-13T00:26:53.222Z,9.57
2023-01-13T00:29:25.404Z,9.58
2023-01-13T00:31:56.317Z,9.58
2023-01-13T00:34:26.128Z,9.60
2023-01-13T00:36:55.025Z,9.57
2023-01-13T00:39:23.967Z,9.58
2023-01-13T00:42:10.601Z,9.59
2023-01-13T00:44:42.032Z,9.58
2023-01-13T00:47:13.058Z,9.59
2023-01-13T00:49:43.191Z,9.55
2023-01-13T00:52:13.244Z,9.53
2023-01-13T00:54:43.265Z,9.54
2023-01-13T00:57:13.623Z,9.54
2023-01-13T00:59:44.843Z,9.51
2023-01-13T01:02:14.073Z,9.56
2023-01-13T01:04:43.805Z,9.56
2023-01-13T01:07:13.369Z,9.56
2023-01-13T01:09:42.997Z,9.56
2023-01-13T01:12:12.854Z,9.55
2023-01-13T01:14:42.007Z,9.57
2023-01-13T01:17:13.223Z,9.57
2023-01-13T01:19:43.157Z,9.58
2023-01-13T01:22:12.035Z,9.58
2023-01-13T01:24:42.034Z,9.58
2023-01-13T01:27:11.626Z,9.58
2023-01-13T01:29:40.520Z,9.58
2023-01-13T01:32:11.381Z,9.59
2023-01-13T01:34:40.248Z,9.58
2023-01-13T01:37:09.622Z,9.57
2023-01-13T01:39:39.748Z,9.57
2023-01-13T01:42:32.457Z,9.59
2023-01-13T01:45:13.042Z,9.57
2023-01-13T01:47:45.540Z,9.57
2023-01-13T01:50:15.940Z,9.58
2023-01-13T01:52:52.331Z,9.56
2023-01-13T01:55:25.346Z,9.56
2023-01-13T01:57:59.599Z,9.54
2023-01-13T02:00:31.290Z,9.56
2023-01-13T02:03:03.224Z,9.52
2023-01-13T02:05:32.439Z,9.55
2023-01-13T02:08:03.134Z,9.55
2023-01-13T02:10:33.712Z,9.56
2023-01-13T02:13:05.290Z,9.56
2023-01-13T02:15:45.885Z,9.53
2023-01-13T02:18:38.693Z,9.53
2023-01-13T02:21:53.441Z,9.54
2023-01-13T02:24:57.342Z,9.55
2023-01-13T02:28:03.533Z,9.56
2023-01-13T02:31:06.209Z,9.58
2023-01-13T02:34:03.220Z,9.57
2023-01-13T02:36:49.315Z,9.56
2023-01-13T02:39:27.389Z,9.55
2023-01-13T02:42:24.004Z,9.54
2023-01-13T02:45:00.651Z,9.49
2023-01-13T02:47:35.907Z,9.51
2023-01-13T02:50:11.931Z,9.49
2023-01-13T02:52:48.061Z,9.53
2023-01-13T02:55:23.254Z,9.56
2023-01-13T02:57:57.267Z,9.55
2023-01-13T03:00:28.207Z,9.51
2023-01-13T03:02:59.043Z,9.53
2023-01-13T03:05:30.726Z,9.51
2023-01-13T03:08:28.736Z,9.54
2023-01-13T03:11:08.243Z,9.52
2023-01-13T03:14:03.047Z,9.57
2023-01-13T03:17:12.958Z,9.58
2023-01-13T03:19:58.424Z,9.58
2023-01-13T03:22:36.169Z,9.60
2023-01-13T03:25:14.342Z,9.61
2023-01-13T03:27:52.703Z,9.61
2023-01-13T03:30:32.668Z,9.60
2023-01-13T03:33:08.288Z,9.64
2023-01-13T03:35:45.323Z,9.63
2023-01-13T03:38:21.294Z,9.62
2023-01-13T03:40:58.236Z,9.63
2023-01-13T03:43:49.054Z,9.64
2023-01-13T03:46:26.798Z,9.65
2023-01-13T03:49:01.512Z,9.67
2023-01-13T03:51:37.190Z,9.68
2023-01-13T03:54:13.410Z,9.67
2023-01-13T03:56:50.481Z,9.67
2023-01-13T03:59:34.781Z,9.69
2023-01-13T04:02:11.436Z,9.69
2023-01-13T04:04:46.549Z,9.65
2023-01-13T04:07:32.424Z,9.69
2023-01-13T04:10:05.529Z,9.67
2023-01-13T04:12:58.509Z,9.69
2023-01-13T04:15:31.726Z,9.70
2023-01-13T04:18:12.578Z,9.73
2023-01-13T04:20:42.515Z,9.72
2023-01-13T04:23:13.986Z,9.69
2023-01-13T04:25:44.361Z,9.69
2023-01-13T04:28:15.216Z,9.70
2023-01-13T04:30:46.730Z,9.73
2023-01-13T04:33:17.993Z,9.74
2023-01-13T04:35:49.675Z,9.72
2023-01-13T04:38:22.945Z,9.72
2023-01-13T04:40:52.975Z,9.73
2023-01-13T04:43:22.559Z,9.73
2023-01-13T04:45:53.255Z,9.57
2023-01-13T04:48:22.399Z,9.43
2023-01-13T04:50:51.786Z,9.27
2023-01-13T04:53:22.565Z,9.22
2023-01-13T04:55:52.376Z,9.23
2023-01-13T04:58:21.843Z,9.21
2023-01-13T05:00:52.612Z,9.22
2023-01-13T05:03:21.408Z,9.15
2023-01-13T05:05:54.021Z,9.05
2023-01-13T05:08:25.307Z,9.01
2023-01-13T05:10:54.796Z,8.97
2023-01-13T05:13:38.065Z,9.01
2023-01-13T05:16:27.951Z,9.00
2023-01-13T05:18:57.602Z,9.01
2023-01-13T05:21:44.856Z,9.00
2023-01-13T05:24:33.774Z,8.95
2023-01-13T05:27:03.399Z,8.96
2023-01-13T05:29:33.277Z,8.95
2023-01-13T05:32:05.126Z,8.94
2023-01-13T05:34:35.842Z,8.92
2023-01-13T05:37:07.404Z,8.92
2023-01-13T05:39:52.191Z,8.92
2023-01-13T05:42:39.106Z,8.87
2023-01-13T05:45:12.005Z,8.86
2023-01-13T05:47:41.142Z,8.82
2023-01-13T05:50:11.817Z,8.84
2023-01-13T05:52:41.275Z,8.84
2023-01-13T05:55:13.807Z,8.87
2023-01-13T05:57:43.067Z,8.83
2023-01-13T06:00:16.420Z,8.80
2023-01-13T06:02:46.350Z,8.78
2023-01-13T06:05:16.144Z,8.76
2023-01-13T06:07:46.109Z,8.76
2023-01-13T06:10:16.462Z,8.74
2023-01-13T06:12:46.548Z,8.74
2023-01-13T06:15:16.706Z,8.69
2023-01-13T06:17:46.397Z,8.70
2023-01-13T06:20:18.232Z,8.67
2023-01-13T06:22:51.524Z,8.66
2023-01-13T06:25:31.634Z,8.65
2023-01-13T06:28:01.799Z,8.65
2023-01-13T06:30:39.124Z,8.63
2023-01-13T06:33:15.322Z,8.56
2023-01-13T06:35:51.315Z,8.53
2023-01-13T06:38:24.289Z,8.52
2023-01-13T06:40:57.053Z,8.51
2023-01-13T06:43:25.588Z,8.52
2023-01-13T06:45:56.767Z,8.52
2023-01-13T06:48:33.566Z,8.51
2023-01-13T06:51:04.588Z,8.51
2023-01-13T06:53:34.123Z,8.49
2023-01-13T06:56:05.367Z,8.43
2023-01-13T06:58:35.809Z,8.39
2023-01-13T07:01:07.225Z,8.39
2023-01-13T07:03:37.264Z,8.35
2023-01-13T07:06:09.147Z,8.30
2023-01-13T07:08:37.519Z,8.25
2023-01-13T07:11:09.514Z,8.22
2023-01-13T07:13:55.677Z,8.21
2023-01-13T07:16:28.696Z,8.22
2023-01-13T07:18:59.305Z,8.21
2023-01-13T07:21:27.875Z,8.22
2023-01-13T07:23:58.513Z,8.24
2023-01-13T07:26:30.782Z,8.24
2023-01-13T07:29:00.972Z,8.25
2023-01-13T07:31:30.569Z,8.25
2023-01-13T07:34:00.102Z,8.19
2023-01-13T07:36:29.617Z,8.22
2023-01-13T07:38:58.598Z,8.27
2023-01-13T07:41:46.360Z,8.19
2023-01-13T07:44:15.339Z,8.14
2023-01-13T07:46:44.891Z,8.18
2023-01-13T07:49:14.529Z,8.19
2023-01-13T07:51:45.254Z,8.22
2023-01-13T07:54:15.365Z,8.16
2023-01-13T07:56:46.209Z,8.19
2023-01-13T07:59:15.150Z,8.21
2023-01-13T08:01:44.995Z,8.21
2023-01-13T08:04:14.388Z,8.26
2023-01-13T08:06:44.877Z,8.28
2023-01-13T08:09:16.237Z,8.27
2023-01-13T08:12:07.199Z,8.29
2023-01-13T08:14:37.793Z,8.26
2023-01-13T08:17:06.737Z,8.25
2023-01-13T08:19:37.308Z,8.28
2023-01-13T08:22:07.397Z,8.31
2023-01-13T08:24:38.544Z,8.30
2023-01-13T08:27:09.398Z,8.28
2023-01-13T08:29:38.403Z,8.27
2023-01-13T08:32:10.135Z,8.20
2023-01-13T08:34:40.410Z,8.20
2023-01-13T08:37:10.673Z,8.14
2023-01-13T08:39:40.988Z,8.17
2023-01-13T08:42:11.175Z,8.16
2023-01-13T08:44:40.652Z,8.12
2023-01-13T08:47:09.952Z,8.17
2023-01-13T08:49:40.369Z,8.10
2023-01-13T08:52:10.981Z,8.11
2023-01-13T08:54:41.401Z,8.12
2023-01-13T08:57:12.725Z,8.14
2023-01-13T08:59:43.363Z,8.08
2023-01-13T09:02:17.061Z,8.12
2023-01-13T09:04:48.319Z,8.15
2023-01-13T09:07:18.644Z,8.19
2023-01-13T09:09:47.480Z,8.19
2023-01-13T09:12:36.668Z,8.20
2023-01-13T09:15:09.159Z,8.16
2023-01-13T09:17:38.692Z,8.20
2023-01-13T09:20:10.466Z,8.22
2023-01-13T09:22:41.243Z,8.25
2023-01-13T09:25:13.231Z,8.29
2023-01-13T09:27:43.609Z,8.32
2023-01-13T09:30:16.370Z,8.29
2023-01-13T09:32:45.474Z,8.31
2023-01-13T09:35:14.083Z,8.32
2023-01-13T09:37:44.715Z,8.36
2023-01-13T09:40:23.159Z,8.38
2023-01-13T09:43:18.975Z,8.32
2023-01-13T09:45:54.526Z,8.36
2023-01-13T09:48:30.520Z,8.39
2023-01-13T09:51:14.492Z,8.38
2023-01-13T09:53:59.714Z,8.38
2023-01-13T09:56:29.864Z,8.42
2023-01-13T09:59:01.660Z,8.42
2023-01-13T10:01:42.941Z,8.42
2023-01-13T10:04:15.163Z,8.42
2023-01-13T10:06:49.992Z,8.40
2023-01-13T10:09:27.757Z,8.40
2023-01-13T10:12:18.574Z,8.41
2023-01-13T10:14:58.432Z,8.40
2023-01-13T10:17:36.909Z,8.42
2023-01-13T10:20:20.307Z,8.49
2023-01-13T10:23:04.190Z,8.53
2023-01-13T10:25:50.561Z,8.50
2023-01-13T10:28:23.867Z,8.54
2023-01-13T10:30:54.317Z,8.57
2023-01-13T10:33:29.634Z,8.59
2023-01-13T10:36:02.308Z,8.56
2023-01-13T10:38:39.737Z,8.64
2023-01-13T10:41:25.292Z,8.64
2023-01-13T10:44:04.521Z,8.65
2023-01-13T10:46:51.571Z,8.70
2023-01-13T10:49:33.315Z,8.73
2023-01-13T10:52:03.818Z,8.74
2023-01-13T10:54:33.886Z,8.69
2023-01-13T10:57:22.016Z,8.65
2023-01-13T10:59:53.700Z,8.57
2023-01-13T11:02:30.514Z,8.57
2023-01-13T11:05:20.079Z,8.52
2023-01-13T11:07:53.242Z,8.53
2023-01-13T11:10:27.253Z,8.46
2023-01-13T11:13:08.574Z,8.47
2023-01-13T11:15:46.669Z,8.36
2023-01-13T11:18:32.738Z,8.37
2023-01-13T11:21:09.693Z,8.42
2023-01-13T11:23:49.710Z,8.45
2023-01-13T11:26:29.788Z,8.44
2023-01-13T11:29:11.705Z,8.44
2023-01-13T11:31:47.351Z,8.46
2023-01-13T11:34:31.772Z,8.45
2023-01-13T11:37:05.926Z,8.49
2023-01-13T11:39:49.676Z,8.56
2023-01-13T11:42:26.941Z,8.60
2023-01-13T11:45:09.631Z,8.65
2023-01-13T11:47:41.249Z,8.68
2023-01-13T11:50:34.224Z,8.68
2023-01-13T11:53:27.452Z,8.73
2023-01-13T11:56:15.301Z,8.77
2023-01-13T11:59:17.548Z,8.73
2023-01-13T12:02:09.826Z,8.76
2023-01-13T12:04:54.331Z,8.75
2023-01-13T12:07:44.904Z,8.73
2023-01-13T12:10:30.051Z,8.71
2023-01-13T12:13:16.239Z,8.69
2023-01-13T12:16:24.482Z,8.75
2023-01-13T12:19:21.930Z,8.71
2023-01-13T12:22:07.890Z,8.66
2023-01-13T12:24:51.231Z,8.64
2023-01-13T12:27:33.160Z,8.63
2023-01-13T12:30:15.056Z,8.55
2023-01-13T12:32:44.989Z,8.54
2023-01-13T12:35:40.497Z,8.51
2023-01-13T12:38:23.741Z,8.47
2023-01-13T12:41:11.597Z,8.35
2023-01-13T12:44:07.102Z,8.22
2023-01-13T12:46:53.861Z,8.12
2023-01-13T12:49:30.128Z,8.18
2023-01-13T12:52:15.653Z,8.19
2023-01-13T12:55:21.583Z,8.23
2023-01-13T12:58:17.791Z,8.25
2023-01-13T13:01:13.555Z,8.19
2023-01-13T13:03:44.102Z,8.20
2023-01-13T13:06:20.955Z,8.20
2023-01-13T13:09:04.573Z,8.12
2023-01-13T13:11:59.965Z,8.18
2023-01-13T13:15:05.497Z,8.27
2023-01-13T13:17:46.235Z,8.27
2023-01-13T13:20:58.995Z,8.28
2023-01-13T13:24:06.822Z,8.30
2023-01-13T13:26:46.279Z,8.34
2023-01-13T13:30:00.317Z,8.38
2023-01-13T13:32:55.931Z,8.32
2023-01-13T13:35:52.315Z,8.33
2023-01-13T13:39:03.249Z,8.31
2023-01-13T13:41:54.734Z,8.29
2023-01-13T13:44:48.757Z,8.35
2023-01-13T13:47:19.336Z,8.35
2023-01-13T13:49:54.503Z,8.15
2023-01-13T13:52:33.869Z,8.19
2023-01-13T13:55:16.112Z,8.12
2023-01-13T13:57:49.929Z,8.20
2023-01-13T14:00:29.787Z,8.21
2023-01-13T14:03:02.277Z,8.22
2023-01-13T14:05:34.913Z,8.24
2023-01-13T14:08:16.212Z,8.26
2023-01-13T14:10:48.296Z,8.24
2023-01-13T14:13:24.086Z,8.25
2023-01-13T14:16:01.185Z,8.20
2023-01-13T14:18:36.294Z,8.19
2023-01-13T14:21:23.535Z,8.16
2023-01-13T14:23:57.651Z,8.16
2023-01-13T14:26:28.700Z,8.12
2023-01-13T14:29:01.176Z,8.13
2023-01-13T14:31:33.000Z,8.12
2023-01-13T14:34:31.987Z,8.12
2023-01-13T14:37:00.473Z,8.12
2023-01-13T14:39:39.404Z,8.10
2023-01-13T14:42:14.915Z,8.13
2023-01-13T14:44:47.960Z,8.13
2023-01-13T14:47:26.873Z,8.13
2023-01-13T14:50:02.702Z,8.10
2023-01-13T14:52:35.773Z,8.13
2023-01-13T14:55:29.605Z,8.18
2023-01-13T14:58:26.989Z,8.05
2023-01-13T15:01:31.845Z,8.07
2023-01-13T15:04:27.170Z,8.08
2023-01-13T15:06:58.929Z,8.08
2023-01-13T15:09:34.639Z,8.03
2023-01-13T15:12:23.362Z,7.98
2023-01-13T15:14:56.756Z,7.99
2023-01-13T15:17:28.624Z,7.93
2023-01-13T15:19:58.143Z,7.96
2023-01-13T15:22:29.604Z,7.88
2023-01-13T15:25:00.109Z,7.92
2023-01-13T15:27:30.355Z,7.87
2023-01-13T15:29:59.336Z,7.84
2023-01-13T15:32:30.961Z,7.87
2023-01-13T15:35:00.161Z,7.85
2023-01-13T15:37:30.770Z,7.81
2023-01-13T15:40:01.030Z,7.83
2023-01-13T15:42:48.488Z,7.83
2023-01-13T15:45:35.462Z,7.79
2023-01-13T15:48:07.048Z,7.77
2023-01-13T15:50:36.627Z,7.77
2023-01-13T15:53:06.699Z,7.74
2023-01-13T15:55:39.868Z,7.73
2023-01-13T15:58:09.071Z,7.68
2023-01-13T16:00:39.248Z,7.64
2023-01-13T16:03:14.335Z,7.61
2023-01-13T16:05:44.155Z,7.62
2023-01-13T16:08:17.657Z,7.64
2023-01-13T16:10:48.883Z,7.62
2023-01-13T16:13:19.150Z,7.58
2023-01-13T16:15:51.158Z,7.57
2023-01-13T16:18:24.858Z,7.55
2023-01-13T16:20:56.032Z,7.51
2023-01-13T16:23:27.394Z,7.52
2023-01-13T16:25:57.718Z,7.49
2023-01-13T16:28:29.497Z,7.52
2023-01-13T16:30:59.660Z,7.52
2023-01-13T16:33:30.852Z,7.55
2023-01-13T16:36:10.471Z,7.56
2023-01-13T16:38:43.702Z,7.53
2023-01-13T16:41:14.393Z,7.52
2023-01-13T16:43:44.555Z,7.50
2023-01-13T16:46:26.357Z,7.52
2023-01-13T16:49:02.570Z,7.51
2023-01-13T16:51:32.168Z,7.52
2023-01-13T16:54:01.683Z,7.51
2023-01-13T16:56:34.524Z,7.49
2023-01-13T16:59:08.729Z,7.43
2023-01-13T17:01:41.939Z,7.45
2023-01-13T17:04:19.656Z,7.44
2023-01-13T17:06:58.258Z,7.43
2023-01-13T17:09:29.226Z,7.41
2023-01-13T17:12:00.010Z,7.38
2023-01-13T17:14:29.815Z,7.37
2023-01-13T17:16:59.762Z,7.35
2023-01-13T17:19:30.389Z,7.36
2023-01-13T17:22:00.593Z,7.34
2023-01-13T17:24:32.710Z,7.36
2023-01-13T17:27:03.707Z,7.34
2023-01-13T17:29:33.010Z,7.30
2023-01-13T17:32:02.851Z,7.28
2023-01-13T17:34:34.663Z,7.35
2023-01-13T17:37:03.508Z,7.35
2023-01-13T17:39:33.785Z,7.34
2023-01-13T17:42:03.633Z,7.36
2023-01-13T17:44:34.162Z,7.34
2023-01-13T17:47:04.092Z,7.32
2023-01-13T17:49:34.238Z,7.30
2023-01-13T17:52:04.045Z,7.30
2023-01-13T17:54:35.505Z,7.29
2023-01-13T17:57:07.677Z,7.33
2023-01-13T17:59:37.676Z,7.31
2023-01-13T18:02:07.650Z,7.28
2023-01-13T18:04:38.658Z,7.28
2023-01-13T18:07:08.462Z,7.29
2023-01-13T18:09:38.398Z,7.27
2023-01-13T18:12:08.016Z,7.23
2023-01-13T18:14:37.345Z,7.22
2023-01-13T18:17:07.073Z,7.23
2023-01-13T18:19:55.486Z,7.24
2023-01-13T18:22:41.726Z,7.22
2023-01-13T18:25:31.269Z,7.20
2023-01-13T18:28:01.848Z,7.23
2023-01-13T18:30:32.224Z,7.21
2023-01-13T18:33:02.076Z,7.19
2023-01-13T18:35:33.236Z,7.18
2023-01-13T18:38:03.613Z,7.16
2023-01-13T18:40:33.466Z,7.19
2023-01-13T18:43:02.785Z,7.18
2023-01-13T18:45:33.453Z,7.18
2023-01-13T18:48:06.950Z,7.19
2023-01-13T18:50:36.947Z,7.17
2023-01-13T18:53:06.388Z,7.17
2023-01-13T18:55:36.066Z,7.16
2023-01-13T18:58:05.190Z,7.19
2023-01-13T19:00:38.246Z,7.13
2023-01-13T19:03:09.584Z,7.16
2023-01-13T19:05:39.505Z,7.18
2023-01-13T19:08:10.032Z,7.22
2023-01-13T19:10:41.662Z,7.22
2023-01-13T19:13:11.112Z,7.22
2023-01-13T19:15:40.751Z,7.23
2023-01-13T19:18:10.696Z,7.25
2023-01-13T19:20:41.703Z,7.25
2023-01-13T19:23:13.644Z,7.27
2023-01-13T19:25:43.621Z,7.27
2023-01-13T19:28:16.982Z,7.31
2023-01-13T19:30:46.112Z,7.32
2023-01-13T19:33:15.005Z,7.29
2023-01-13T19:35:45.901Z,7.30
2023-01-13T19:38:15.515Z,7.32
2023-01-13T19:40:53.174Z,7.31
2023-01-13T19:43:40.029Z,7.30
2023-01-13T19:46:10.048Z,7.29
2023-01-13T19:48:39.247Z,7.31
2023-01-13T19:51:14.914Z,7.28
2023-01-13T19:53:47.656Z,7.31
2023-01-13T19:56:17.276Z,7.31
2023-01-13T19:58:50.763Z,7.33
2023-01-13T20:01:21.543Z,7.32
2023-01-13T20:03:50.784Z,7.33
2023-01-13T20:06:21.702Z,7.34
2023-01-13T20:08:52.622Z,7.31
2023-01-13T20:11:28.362Z,7.34
2023-01-13T20:14:00.113Z,7.33
2023-01-13T20:16:30.096Z,7.34
2023-01-13T20:18:59.053Z,7.36
2023-01-13T20:21:31.859Z,7.33
2023-01-13T20:24:02.045Z,7.36
2023-01-13T20:26:31.990Z,7.36
2023-01-13T20:29:02.329Z,7.32
2023-01-13T20:31:32.172Z,7.31
2023-01-13T20:34:01.985Z,7.29
2023-01-13T20:36:37.476Z,7.29
2023-01-13T20:39:08.732Z,7.26
2023-01-13T20:41:56.327Z,7.30
2023-01-13T20:44:26.947Z,7.27
2023-01-13T20:46:58.553Z,7.27
2023-01-13T20:49:31.013Z,7.28
2023-01-13T20:52:04.200Z,7.26
2023-01-13T20:54:33.661Z,7.29
2023-01-13T20:57:04.129Z,7.31
2023-01-13T20:59:34.713Z,7.29
2023-01-13T21:02:05.889Z,7.29
2023-01-13T21:04:36.716Z,7.30
2023-01-13T21:07:06.912Z,7.31
2023-01-13T21:09:36.823Z,7.31
2023-01-13T21:12:24.499Z,7.31
2023-01-13T21:15:27.859Z,7.29
2023-01-13T21:18:15.319Z,7.27
2023-01-13T21:20:44.738Z,7.23
2023-01-13T21:23:15.069Z,7.24
2023-01-13T21:25:45.679Z,7.23
2023-01-13T21:28:17.678Z,7.25
2023-01-13T21:30:47.949Z,7.24
2023-01-13T21:33:17.551Z,7.25
2023-01-13T21:35:48.256Z,7.28
2023-01-13T21:38:19.513Z,7.29
2023-01-13T21:40:56.666Z,7.29
2023-01-13T21:43:49.303Z,7.31
2023-01-13T21:46:37.118Z,7.27
2023-01-13T21:49:06.950Z,7.28
2023-01-13T21:51:37.259Z,7.28
2023-01-13T21:54:07.739Z,7.25
2023-01-13T21:56:36.989Z,7.27
2023-01-13T21:59:07.656Z,7.29
2023-01-13T22:01:36.864Z,7.23
2023-01-13T22:04:25.322Z,7.26
2023-01-13T22:06:54.378Z,7.26
2023-01-13T22:09:25.687Z,7.27
2023-01-13T22:11:55.032Z,7.26
2023-01-13T22:14:26.236Z,7.24
2023-01-13T22:17:01.295Z,7.27
2023-01-13T22:19:31.964Z,7.24
2023-01-13T22:22:02.263Z,7.24
2023-01-13T22:24:34.080Z,7.25
2023-01-13T22:27:03.113Z,7.25
2023-01-13T22:29:32.719Z,7.22
2023-01-13T22:32:01.799Z,7.23
2023-01-13T22:34:30.898Z,7.23
2023-01-13T22:37:01.100Z,7.22
2023-01-13T22:39:32.760Z,7.18
2023-01-13T22:42:02.455Z,7.16
2023-01-13T22:44:31.801Z,7.19
2023-01-13T22:47:03.015Z,7.22
2023-01-13T22:49:31.735Z,7.21
2023-01-13T22:52:01.411Z,7.22
2023-01-13T22:54:31.898Z,7.20
2023-01-13T22:57:02.897Z,7.18
2023-01-13T22:59:32.759Z,7.18
2023-01-13T23:02:01.353Z,7.18
2023-01-13T23:04:30.886Z,7.21
2023-01-13T23:07:00.057Z,7.20
2023-01-13T23:09:30.638Z,7.22
2023-01-13T23:12:01.641Z,7.25
2023-01-13T23:14:30.636Z,7.23
2023-01-13T23:17:00.196Z,7.23
2023-01-13T23:19:30.547Z,7.20
2023-01-13T23:22:01.120Z,7.19
2023-01-13T23:24:31.207Z,7.19
2023-01-13T23:27:01.641Z,7.24
2023-01-13T23:29:30.614Z,7.24
2023-01-13T23:32:00.579Z,7.25
2023-01-13T23:34:30.443Z,7.25
2023-01-13T23:36:59.984Z,7.24
2023-01-13T23:39:30.943Z,7.25
2023-01-13T23:42:01.499Z,7.26
2023-01-13T23:44:31.352Z,7.26
2023-01-13T23:47:01.563Z,7.22
2023-01-13T23:49:31.525Z,7.20
2023-01-13T23:52:01.677Z,7.21
2023-01-13T23:54:31.723Z,7.22
2023-01-13T23:57:04.528Z,7.25
2023-01-13T23:59:35.008Z,7.26
